createdAt,value
2022-08-23T00:02:28.423Z,21.80
2022-08-23T00:05:08.198Z,21.80
2022-08-23T00:07:42.599Z,21.80
2022-08-23T00:10:12.395Z,21.80
2022-08-23T00:12:40.106Z,21.90
2022-08-23T00:15:09.777Z,21.80
2022-08-23T00:17:37.876Z,21.90
2022-08-23T00:20:11.820Z,21.90
2022-08-23T00:22:40.208Z,21.90
2022-08-23T00:25:09.999Z,21.80
2022-08-23T00:27:37.435Z,21.80
2022-08-23T00:30:08.622Z,21.80
2022-08-23T00:32:38.254Z,21.90
2022-08-23T00:35:07.930Z,21.80
2022-08-23T00:37:35.481Z,21.90
2022-08-23T00:40:04.482Z,21.80
2022-08-23T00:43:01.477Z,21.90
2022-08-23T00:46:11.661Z,21.80
2022-08-23T00:48:39.935Z,21.80
2022-08-23T00:51:20.196Z,21.80
2022-08-23T00:53:53.664Z,21.90
2022-08-23T00:56:24.763Z,21.80
2022-08-23T00:58:53.846Z,21.90
2022-08-23T01:01:24.623Z,21.80
2022-08-23T01:04:04.449Z,21.90
2022-08-23T01:06:44.136Z,21.90
2022-08-23T01:09:15.211Z,21.80
2022-08-23T01:11:45.856Z,21.80
2022-08-23T01:14:23.016Z,21.90
2022-08-23T01:16:59.651Z,21.90
2022-08-23T01:19:32.911Z,21.90
2022-08-23T01:22:25.357Z,21.90
2022-08-23T01:25:06.210Z,21.90
2022-08-23T01:27:36.426Z,21.90
2022-08-23T01:30:08.075Z,21.90
2022-08-23T01:32:42.194Z,21.90
2022-08-23T01:35:10.098Z,21.80
2022-08-23T01:37:37.903Z,21.90
2022-08-23T01:40:06.337Z,21.90
2022-08-23T01:42:33.653Z,21.80
2022-08-23T01:45:01.388Z,21.80
2022-08-23T01:47:28.709Z,21.80
2022-08-23T01:49:56.074Z,21.90
2022-08-23T01:52:23.391Z,21.80
2022-08-23T01:54:50.693Z,21.80
2022-08-23T01:57:18.060Z,21.80
2022-08-23T01:59:45.426Z,21.80
2022-08-23T02:02:12.716Z,21.90
2022-08-23T02:04:40.081Z,21.80
2022-08-23T02:07:19.877Z,21.90
2022-08-23T02:09:47.351Z,21.90
2022-08-23T02:12:14.714Z,21.80
2022-08-23T02:14:42.317Z,21.80
2022-08-23T02:17:09.928Z,21.90
2022-08-23T02:19:38.648Z,21.90
2022-08-23T02:22:07.342Z,21.90
2022-08-23T02:24:35.587Z,21.90
2022-08-23T02:27:05.112Z,21.90
2022-08-23T02:29:39.074Z,21.80
2022-08-23T02:32:08.370Z,21.80
2022-08-23T02:34:38.316Z,21.80
2022-08-23T02:37:07.657Z,21.80
2022-08-23T02:39:36.421Z,21.80
2022-08-23T02:42:07.252Z,21.80
2022-08-23T02:44:35.720Z,21.80
2022-08-23T02:47:03.563Z,21.80
2022-08-23T02:49:31.694Z,21.80
2022-08-23T02:51:59.185Z,21.80
2022-08-23T02:54:26.581Z,21.80
2022-08-23T02:56:54.473Z,21.80
2022-08-23T02:59:21.934Z,21.80
2022-08-23T03:01:49.388Z,21.80
2022-08-23T03:04:16.866Z,21.90
2022-08-23T03:06:44.271Z,21.80
2022-08-23T03:09:11.796Z,21.90
2022-08-23T03:11:53.090Z,21.90
2022-08-23T03:14:20.559Z,21.90
2022-08-23T03:16:48.207Z,21.90
2022-08-23T03:19:15.638Z,21.80
2022-08-23T03:21:43.521Z,21.80
2022-08-23T03:24:12.154Z,21.80
2022-08-23T03:26:43.684Z,21.80
2022-08-23T03:29:11.315Z,21.80
2022-08-23T03:31:38.623Z,21.80
2022-08-23T03:34:06.368Z,21.80
2022-08-23T03:36:33.697Z,21.70
2022-08-23T03:39:01.040Z,21.70
2022-08-23T03:41:28.431Z,21.70
2022-08-23T03:43:55.750Z,21.70
2022-08-23T03:46:23.800Z,21.70
2022-08-23T03:48:55.389Z,21.60
2022-08-23T03:51:24.278Z,21.60
2022-08-23T03:53:51.958Z,21.60
2022-08-23T03:56:38.710Z,21.70
2022-08-23T03:59:11.573Z,21.70
2022-08-23T04:01:38.984Z,21.70
2022-08-23T04:04:06.465Z,21.70
2022-08-23T04:06:34.065Z,21.80
2022-08-23T04:09:01.347Z,21.80
2022-08-23T04:11:29.416Z,21.80
2022-08-23T04:13:56.745Z,21.80
2022-08-23T04:16:27.584Z,21.80
2022-08-23T04:18:55.081Z,21.80
2022-08-23T04:21:23.694Z,21.80
2022-08-23T04:23:52.817Z,21.80
2022-08-23T04:26:21.464Z,21.80
2022-08-23T04:28:48.766Z,21.80
2022-08-23T04:31:18.101Z,21.70
2022-08-23T04:33:45.457Z,21.70
2022-08-23T04:36:20.441Z,21.70
2022-08-23T04:38:51.110Z,21.70
2022-08-23T04:41:37.573Z,21.60
2022-08-23T04:44:05.708Z,21.70
2022-08-23T04:46:33.437Z,21.60
2022-08-23T04:49:01.057Z,21.70
2022-08-23T04:51:28.988Z,21.70
2022-08-23T04:53:56.630Z,21.60
2022-08-23T04:56:23.927Z,21.60
2022-08-23T04:58:51.198Z,21.60
2022-08-23T05:01:18.516Z,21.60
2022-08-23T05:03:46.067Z,21.60
2022-08-23T05:06:13.928Z,21.70
2022-08-23T05:08:41.280Z,21.70
2022-08-23T05:11:10.209Z,21.70
2022-08-23T05:13:38.808Z,21.70
2022-08-23T05:16:06.808Z,21.70
2022-08-23T05:18:34.287Z,21.70
2022-08-23T05:21:09.058Z,21.70
2022-08-23T05:23:36.408Z,21.70
2022-08-23T05:26:04.613Z,21.70
2022-08-23T05:28:34.679Z,21.70
2022-08-23T05:31:03.804Z,21.70
2022-08-23T05:33:32.918Z,21.70
2022-08-23T05:36:02.074Z,21.70
2022-08-23T05:38:30.060Z,21.70
2022-08-23T05:40:59.777Z,21.70
2022-08-23T05:43:27.630Z,21.70
2022-08-23T05:46:05.892Z,21.70
2022-08-23T05:48:34.426Z,21.70
2022-08-23T05:51:19.702Z,21.70
2022-08-23T05:53:48.490Z,21.70
2022-08-23T05:56:15.825Z,21.70
2022-08-23T05:58:44.057Z,21.70
2022-08-23T06:01:11.854Z,21.70
2022-08-23T06:03:39.216Z,21.70
2022-08-23T06:06:07.083Z,21.80
2022-08-23T06:08:38.153Z,21.80
2022-08-23T06:11:09.213Z,21.70
2022-08-23T06:13:44.199Z,21.80
2022-08-23T06:16:14.917Z,21.80
2022-08-23T06:18:45.622Z,21.80
2022-08-23T06:21:14.945Z,21.70
2022-08-23T06:23:43.165Z,21.70
2022-08-23T06:26:13.987Z,21.70
2022-08-23T06:28:50.847Z,21.70
2022-08-23T06:31:40.141Z,21.70
2022-08-23T06:34:10.126Z,21.70
2022-08-23T06:36:37.549Z,21.70
2022-08-23T06:39:06.956Z,21.70
2022-08-23T06:41:34.839Z,21.70
2022-08-23T06:44:02.268Z,21.70
2022-08-23T06:46:30.404Z,21.80
2022-08-23T06:48:59.568Z,21.70
2022-08-23T06:51:30.576Z,21.70
2022-08-23T06:54:02.908Z,21.70
2022-08-23T06:56:30.836Z,21.80
2022-08-23T06:58:59.256Z,21.70
2022-08-23T07:01:47.569Z,21.80
2022-08-23T07:04:21.688Z,21.80
2022-08-23T07:06:49.435Z,21.70
2022-08-23T07:09:18.855Z,21.80
2022-08-23T07:11:46.617Z,21.70
2022-08-23T07:14:16.819Z,21.70
2022-08-23T07:16:48.718Z,21.70
2022-08-23T07:19:18.281Z,21.70
2022-08-23T07:21:48.796Z,21.80
2022-08-23T07:24:18.615Z,21.70
2022-08-23T07:26:48.160Z,21.70
2022-08-23T07:29:23.827Z,21.70
2022-08-23T07:31:53.996Z,21.60
2022-08-23T07:34:22.723Z,21.60
2022-08-23T07:36:51.654Z,21.50
2022-08-23T07:39:20.808Z,21.50
2022-08-23T07:41:49.472Z,21.50
2022-08-23T07:44:18.500Z,21.50
2022-08-23T07:46:47.450Z,21.50
2022-08-23T07:49:16.323Z,21.50
2022-08-23T07:51:47.304Z,21.40
2022-08-23T07:54:15.413Z,21.30
2022-08-23T07:56:43.268Z,21.30
2022-08-23T07:59:14.180Z,21.30
2022-08-23T08:01:43.647Z,21.30
2022-08-23T08:04:12.533Z,21.20
2022-08-23T08:06:46.269Z,21.20
2022-08-23T08:09:15.325Z,21.30
2022-08-23T08:11:47.500Z,21.30
2022-08-23T08:14:17.339Z,21.30
2022-08-23T08:16:47.503Z,21.30
2022-08-23T08:19:17.014Z,21.30
2022-08-23T08:21:48.344Z,21.20
2022-08-23T08:24:17.260Z,21.30
2022-08-23T08:26:46.057Z,21.30
2022-08-23T08:29:13.972Z,21.30
2022-08-23T08:31:43.375Z,21.50
2022-08-23T08:34:11.304Z,21.50
2022-08-23T08:36:42.072Z,21.50
2022-08-23T08:39:16.296Z,21.60
2022-08-23T08:41:57.456Z,21.60
2022-08-23T08:44:47.008Z,21.70
2022-08-23T08:47:21.334Z,21.70
2022-08-23T08:50:14.525Z,21.70
2022-08-23T08:52:51.498Z,21.80
2022-08-23T08:55:33.242Z,21.80
2022-08-23T08:58:02.691Z,21.90
2022-08-23T09:00:36.835Z,21.90
2022-08-23T09:03:14.418Z,21.90
2022-08-23T09:05:52.810Z,21.90
2022-08-23T09:08:36.287Z,21.90
2022-08-23T09:11:03.867Z,21.90
2022-08-23T09:13:37.006Z,21.90
2022-08-23T09:16:28.931Z,21.90
2022-08-23T09:18:56.594Z,21.90
2022-08-23T09:21:24.785Z,21.90
2022-08-23T09:24:00.486Z,21.90
2022-08-23T09:26:30.729Z,21.90
2022-08-23T09:29:22.874Z,21.90
2022-08-23T09:31:58.395Z,21.90
2022-08-23T09:34:37.558Z,21.90
2022-08-23T09:37:16.924Z,21.90
2022-08-23T09:39:50.661Z,21.90
2022-08-23T09:42:37.586Z,21.90
2022-08-23T09:45:24.569Z,21.90
2022-08-23T09:47:52.135Z,21.90
2022-08-23T09:50:32.125Z,21.90
2022-08-23T09:53:11.718Z,21.90
2022-08-23T09:55:48.723Z,21.90
2022-08-23T09:58:19.100Z,21.90
2022-08-23T10:01:01.979Z,21.90
2022-08-23T10:03:29.891Z,21.90
2022-08-23T10:06:00.899Z,21.90
2022-08-23T10:08:32.942Z,21.90
2022-08-23T10:11:20.177Z,21.90
2022-08-23T10:13:48.024Z,21.90
2022-08-23T10:16:22.785Z,21.90
2022-08-23T10:19:14.620Z,22.00
2022-08-23T10:21:57.413Z,22.00
2022-08-23T10:24:43.793Z,22.00
2022-08-23T10:27:32.651Z,22.00
2022-08-23T10:30:36.734Z,22.00
2022-08-23T10:33:32.135Z,21.90
2022-08-23T10:36:22.145Z,21.90
2022-08-23T10:39:07.242Z,21.90
2022-08-23T10:41:58.839Z,21.90
2022-08-23T10:44:46.488Z,21.90
2022-08-23T10:47:34.906Z,21.90
2022-08-23T10:50:07.346Z,21.90
2022-08-23T10:52:52.702Z,21.90
2022-08-23T10:55:44.136Z,21.90
2022-08-23T10:58:21.240Z,21.90
2022-08-23T11:00:51.569Z,21.90
2022-08-23T11:03:31.797Z,21.80
2022-08-23T11:06:36.290Z,21.80
2022-08-23T11:09:27.877Z,21.90
2022-08-23T11:12:15.655Z,21.80
2022-08-23T11:14:48.128Z,21.70
2022-08-23T11:17:28.226Z,21.70
2022-08-23T11:19:55.978Z,21.70
2022-08-23T11:22:28.054Z,21.60
2022-08-23T11:25:04.785Z,21.50
2022-08-23T11:27:35.287Z,21.50
2022-08-23T11:30:36.900Z,21.60
2022-08-23T11:33:24.557Z,21.60
2022-08-23T11:36:09.824Z,21.60
2022-08-23T11:38:49.587Z,21.60
2022-08-23T11:41:19.892Z,21.60
2022-08-23T11:43:49.681Z,21.60
2022-08-23T11:46:26.799Z,21.60
2022-08-23T11:49:15.949Z,21.60
2022-08-23T11:52:07.945Z,21.50
2022-08-23T11:54:39.522Z,21.60
2022-08-23T11:57:31.464Z,21.60
2022-08-23T12:00:08.245Z,21.50
2022-08-23T12:03:06.150Z,21.60
2022-08-23T12:05:40.659Z,21.60
2022-08-23T12:08:17.063Z,21.60
2022-08-23T12:10:45.300Z,21.60
2022-08-23T12:13:19.083Z,21.60
2022-08-23T12:16:04.647Z,21.60
2022-08-23T12:18:35.377Z,21.60
2022-08-23T12:21:05.170Z,21.60
2022-08-23T12:23:47.719Z,21.60
2022-08-23T12:26:46.401Z,21.60
2022-08-23T12:29:30.291Z,21.70
2022-08-23T12:32:12.028Z,21.70
2022-08-23T12:35:00.822Z,21.70
2022-08-23T12:37:36.495Z,21.70
2022-08-23T12:40:09.361Z,21.70
2022-08-23T12:42:39.789Z,21.70
2022-08-23T12:45:18.824Z,21.70
2022-08-23T12:47:58.088Z,21.70
2022-08-23T12:50:36.359Z,21.80
2022-08-23T12:53:09.753Z,21.80
2022-08-23T12:55:41.379Z,21.70
2022-08-23T12:58:09.764Z,21.80
2022-08-23T13:00:43.395Z,21.70
2022-08-23T13:03:44.419Z,21.70
2022-08-23T13:06:15.738Z,21.80
2022-08-23T13:08:53.182Z,21.80
2022-08-23T13:11:23.008Z,21.80
2022-08-23T13:13:50.318Z,21.80
2022-08-23T13:16:32.221Z,21.80
2022-08-23T13:19:22.997Z,21.80
2022-08-23T13:22:09.589Z,21.80
2022-08-23T13:24:40.114Z,21.80
2022-08-23T13:27:18.011Z,21.90
2022-08-23T13:29:51.121Z,21.90
2022-08-23T13:32:31.367Z,21.90
2022-08-23T13:35:23.683Z,22.00
2022-08-23T13:37:53.978Z,22.20
2022-08-23T13:40:25.705Z,22.30
2022-08-23T13:43:10.161Z,22.30
2022-08-23T13:45:48.722Z,22.30
2022-08-23T13:48:33.919Z,22.30
2022-08-23T13:51:20.773Z,22.30
2022-08-23T13:53:48.144Z,22.30
2022-08-23T13:56:16.334Z,22.20
2022-08-23T13:58:52.480Z,22.30
2022-08-23T14:01:19.898Z,22.30
2022-08-23T14:03:47.276Z,22.30
2022-08-23T14:06:14.662Z,22.40
2022-08-23T14:08:41.992Z,22.60
2022-08-23T14:11:10.488Z,22.70
2022-08-23T14:13:38.541Z,22.80
2022-08-23T14:21:43.822Z,22.80
2022-08-23T14:24:11.131Z,22.60
2022-08-23T14:26:38.585Z,22.60
2022-08-23T14:29:22.352Z,22.50
2022-08-23T14:31:51.867Z,22.30
2022-08-23T14:34:20.118Z,22.30
2022-08-23T14:39:35.581Z,22.30
2022-08-23T14:42:04.124Z,22.30
2022-08-23T14:44:35.921Z,22.20
2022-08-23T14:47:05.816Z,22.20
2022-08-23T14:49:33.626Z,22.20
2022-08-23T14:52:00.966Z,22.10
2022-08-23T14:54:28.260Z,22.10
2022-08-23T14:56:55.806Z,22.00
2022-08-23T14:59:23.189Z,22.00
2022-08-23T15:01:53.365Z,22.00
2022-08-23T15:04:23.253Z,21.90
2022-08-23T15:09:39.087Z,21.90
2022-08-23T15:14:57.112Z,21.90
2022-08-23T15:17:30.349Z,21.90
2022-08-23T15:19:59.528Z,21.90
2022-08-23T15:22:26.854Z,21.90
2022-08-23T15:24:54.133Z,21.90
2022-08-23T15:27:22.442Z,22.00
2022-08-23T15:29:49.749Z,22.00
2022-08-23T15:32:22.313Z,22.10
2022-08-23T15:34:50.527Z,22.20
2022-08-23T15:37:21.202Z,22.20
2022-08-23T15:39:49.126Z,22.20
2022-08-23T15:42:20.076Z,22.20
2022-08-23T15:44:48.703Z,22.30
2022-08-23T15:47:24.677Z,22.30
2022-08-23T15:49:52.342Z,22.30
2022-08-23T15:52:20.218Z,22.30
2022-08-23T15:54:48.069Z,22.30
2022-08-23T15:57:20.338Z,22.20
2022-08-23T15:59:48.051Z,22.30
2022-08-23T16:02:16.071Z,22.20
2022-08-23T16:04:43.585Z,22.30
2022-08-23T16:07:14.878Z,22.30
2022-08-23T16:09:42.479Z,22.30
2022-08-23T16:12:10.301Z,22.20
2022-08-23T16:14:38.587Z,22.30
2022-08-23T16:17:07.253Z,22.30
2022-08-23T16:19:34.812Z,22.30
2022-08-23T16:22:03.180Z,22.30
2022-08-23T16:24:30.514Z,22.30
2022-08-23T16:26:58.230Z,22.30
2022-08-23T16:29:25.661Z,22.30
2022-08-23T16:31:52.988Z,22.30
2022-08-23T16:34:20.610Z,22.30
2022-08-23T16:36:53.697Z,22.20
2022-08-23T16:39:22.471Z,22.20
2022-08-23T16:41:50.121Z,22.20
2022-08-23T16:44:18.274Z,22.20
2022-08-23T16:46:46.074Z,22.20
2022-08-23T16:49:16.001Z,22.20
2022-08-23T16:51:43.632Z,22.20
2022-08-23T16:54:11.393Z,22.20
2022-08-23T16:56:40.537Z,22.20
2022-08-23T16:59:11.229Z,22.20
2022-08-23T17:01:44.999Z,22.20
2022-08-23T17:04:12.716Z,22.20
2022-08-23T17:06:41.608Z,22.20
2022-08-23T17:09:09.407Z,22.20
2022-08-23T17:11:37.481Z,22.20
2022-08-23T17:14:11.367Z,22.20
2022-08-23T17:16:42.036Z,22.20
2022-08-23T17:19:11.091Z,22.20
2022-08-23T17:21:38.753Z,22.30
2022-08-23T17:24:06.856Z,22.20
2022-08-23T17:26:34.723Z,22.20
2022-08-23T17:29:03.631Z,22.20
2022-08-23T17:31:31.885Z,22.20
2022-08-23T17:34:03.346Z,22.20
2022-08-23T17:36:53.327Z,22.30
2022-08-23T17:39:24.676Z,22.30
2022-08-23T17:41:52.113Z,22.30
2022-08-23T17:44:20.476Z,22.30
2022-08-23T17:46:48.516Z,22.30
2022-08-23T17:49:17.153Z,22.30
2022-08-23T17:51:45.372Z,22.30
2022-08-23T17:54:16.016Z,22.30
2022-08-23T17:56:50.086Z,22.20
2022-08-23T17:59:19.657Z,22.20
2022-08-23T18:01:47.406Z,22.20
2022-08-23T18:04:15.138Z,22.20
2022-08-23T18:06:42.495Z,22.20
2022-08-23T18:09:10.123Z,22.20
2022-08-23T18:11:37.621Z,22.20
2022-08-23T18:14:06.528Z,22.10
2022-08-23T18:16:35.811Z,22.00
2022-08-23T18:19:07.205Z,21.90
2022-08-23T18:21:42.237Z,21.80
2022-08-23T18:24:10.477Z,21.70
2022-08-23T18:26:57.859Z,21.70
2022-08-23T18:29:25.646Z,21.60
2022-08-23T18:31:53.208Z,21.50
2022-08-23T18:34:21.479Z,21.50
2022-08-23T18:36:48.840Z,21.50
2022-08-23T18:39:17.032Z,21.40
2022-08-23T18:42:00.572Z,21.40
2022-08-23T18:44:28.393Z,21.40
2022-08-23T18:46:55.784Z,21.30
2022-08-23T18:49:23.482Z,21.30
2022-08-23T18:51:51.054Z,21.30
2022-08-23T18:54:18.406Z,21.30
2022-08-23T18:56:45.870Z,21.30
2022-08-23T18:59:13.851Z,21.30
2022-08-23T19:01:42.916Z,21.30
2022-08-23T19:04:11.762Z,21.30
2022-08-23T19:06:40.510Z,21.30
2022-08-23T19:09:09.038Z,21.20
2022-08-23T19:11:41.980Z,21.20
2022-08-23T19:14:11.477Z,21.20
2022-08-23T19:16:40.701Z,21.20
2022-08-23T19:19:10.197Z,21.20
2022-08-23T19:21:37.707Z,21.10
2022-08-23T19:24:05.475Z,21.20
2022-08-23T19:26:36.303Z,21.20
2022-08-23T19:29:07.657Z,21.10
2022-08-23T19:31:41.657Z,21.00
2022-08-23T19:34:10.136Z,21.10
2022-08-23T19:36:46.369Z,21.10
2022-08-23T19:39:17.813Z,21.10
2022-08-23T19:41:45.221Z,21.00
2022-08-23T19:44:12.892Z,21.10
2022-08-23T19:46:42.199Z,21.00
2022-08-23T19:49:11.063Z,21.00
2022-08-23T19:51:39.943Z,21.00
2022-08-23T19:54:10.903Z,21.00
2022-08-23T19:56:46.935Z,21.00
2022-08-23T19:59:20.350Z,21.00
2022-08-23T20:01:49.793Z,21.00
2022-08-23T20:04:18.123Z,21.00
2022-08-23T20:06:46.634Z,20.90
2022-08-23T20:09:14.799Z,20.90
2022-08-23T20:11:42.944Z,20.80
2022-08-23T20:14:11.137Z,20.70
2022-08-23T20:16:39.246Z,20.80
2022-08-23T20:19:09.777Z,20.80
2022-08-23T20:21:38.372Z,20.80
2022-08-23T20:24:07.051Z,20.80
2022-08-23T20:26:43.260Z,20.90
2022-08-23T20:29:17.448Z,20.90
2022-08-23T20:31:51.766Z,20.90
2022-08-23T20:34:19.610Z,20.90
2022-08-23T20:36:47.509Z,20.90
2022-08-23T20:39:19.280Z,20.90
2022-08-23T20:41:49.319Z,20.90
2022-08-23T20:44:17.535Z,20.90
2022-08-23T20:46:45.191Z,20.90
2022-08-23T20:49:12.753Z,20.90
2022-08-23T20:51:40.375Z,20.90
2022-08-23T20:54:09.714Z,20.90
2022-08-23T20:56:37.799Z,21.00
2022-08-23T20:59:06.346Z,21.00
2022-08-23T21:01:34.637Z,20.90
2022-08-23T21:04:02.741Z,20.80
2022-08-23T21:06:45.248Z,20.80
2022-08-23T21:09:17.195Z,20.80
2022-08-23T21:11:46.015Z,20.80
2022-08-23T21:14:15.476Z,20.80
2022-08-23T21:16:46.038Z,20.70
2022-08-23T21:19:20.841Z,20.70
2022-08-23T21:21:48.469Z,20.70
2022-08-23T21:24:16.437Z,20.80
2022-08-23T21:26:43.901Z,20.90
2022-08-23T21:29:11.527Z,20.90
2022-08-23T21:31:39.645Z,20.90
2022-08-23T21:34:08.249Z,20.90
2022-08-23T21:36:36.386Z,20.90
2022-08-23T21:39:05.291Z,20.90
2022-08-23T21:41:42.023Z,20.90
2022-08-23T21:44:16.321Z,20.90
2022-08-23T21:46:45.096Z,20.90
2022-08-23T21:49:12.792Z,20.90
2022-08-23T21:51:41.124Z,20.90
2022-08-23T21:54:10.226Z,20.80
2022-08-23T21:56:38.095Z,20.90
2022-08-23T21:59:09.359Z,20.90
2022-08-23T22:01:37.252Z,20.90
2022-08-23T22:04:07.413Z,20.90
2022-08-23T22:06:36.446Z,20.80
2022-08-23T22:09:06.296Z,20.80
2022-08-23T22:11:40.668Z,20.80
2022-08-23T22:14:09.564Z,20.80
2022-08-23T22:16:37.410Z,20.80
2022-08-23T22:19:14.071Z,20.70
2022-08-23T22:21:42.633Z,20.70
2022-08-23T22:24:12.922Z,20.70
2022-08-23T22:26:42.171Z,20.80
2022-08-23T22:29:11.510Z,20.80
2022-08-23T22:31:39.628Z,20.70
2022-08-23T22:34:08.650Z,20.70
2022-08-23T22:36:36.680Z,20.70
2022-08-23T22:39:05.120Z,20.70
2022-08-23T22:41:33.272Z,20.70
2022-08-23T22:44:03.416Z,20.70
2022-08-23T22:46:33.717Z,20.70
2022-08-23T22:49:01.735Z,20.70
2022-08-23T22:51:32.048Z,20.70
2022-08-23T22:54:04.067Z,20.70
2022-08-23T22:56:36.848Z,20.60
2022-08-23T22:59:04.601Z,20.70
2022-08-23T23:01:36.672Z,20.70
2022-08-23T23:04:06.836Z,20.70
2022-08-23T23:06:35.698Z,20.60
2022-08-23T23:09:04.300Z,20.60
2022-08-23T23:11:31.765Z,20.70
2022-08-23T23:13:59.085Z,20.60
2022-08-23T23:16:28.191Z,20.60
2022-08-23T23:19:15.062Z,20.60
2022-08-23T23:21:48.365Z,20.60
2022-08-23T23:24:23.702Z,20.70
2022-08-23T23:26:51.864Z,20.70
2022-08-23T23:29:20.092Z,20.70
2022-08-23T23:31:47.542Z,20.70
2022-08-23T23:34:14.958Z,20.70
2022-08-23T23:36:42.596Z,20.80
2022-08-23T23:39:15.095Z,20.80
2022-08-23T23:41:42.940Z,20.80
2022-08-23T23:44:10.963Z,20.80
2022-08-23T23:46:38.264Z,20.80
2022-08-23T23:49:05.608Z,20.90
2022-08-23T23:51:33.495Z,21.10
2022-08-23T23:54:01.101Z,21.10
2022-08-23T23:56:30.521Z,21.20
2022-08-23T23:58:58.720Z,21.30
